Time;durP1;ratioP1;P1;durP2;ratioP2;P2;SDS_P1;SDS_P2;PMS_P1;PMS_P2;Temp;Humidity;BMP_temperature;BMP_pressure;BME280_temperature;BME280_humidity;BME280_pressure;Samples;Min_cycle;Max_cycle;Signal;HPM_P1;HPM_P2
2023/06/20 00:01:54;;;;;;;;;;;24.30;44.00;;;23.76;43.68;100962.44;12256928;19;19918;-82
2023/06/20 00:05:56;;;;;;;;;;;24.20;44.00;;;23.74;43.31;100965.28;12258045;19;19918;-83
2023/06/20 00:09:57;;;;;;;;;;;24.20;44.10;;;23.68;43.40;100954.41;12259240;19;20249;-83
2023/06/20 00:13:59;;;;;;;;;;;24.20;44.10;;;23.65;43.64;100952.88;12253942;19;19988;-83
2023/06/20 00:18:00;;;;;;;;;;;24.10;44.10;;;23.67;43.86;100969.56;12257877;19;19918;-82
2023/06/20 00:22:03;;;;;;;;;;;24.20;44.30;;;23.65;43.52;100971.56;12257218;19;19926;-83
2023/06/20 00:26:05;;;;;;;;;;;24.10;44.20;;;23.60;43.75;100957.88;12257911;19;19989;-84
2023/06/20 00:30:07;;;;;;;;;;;24.10;44.20;;;23.57;43.57;100963.53;12255824;19;19917;-82
2023/06/20 00:34:08;;;;;;;;;;;24.10;44.30;;;23.43;43.58;100951.69;12253500;19;19935;-82
2023/06/20 00:38:10;;;;;;;;;;;24.10;44.30;;;23.39;43.91;100945.84;12255334;19;19918;-83
2023/06/20 00:42:24;;;;;;;;;;;24.00;44.30;;;23.44;43.89;100952.50;12254409;19;19922;-83
2023/06/20 00:46:26;;;;;;;;;;;24.00;44.40;;;23.42;44.03;100950.03;12256102;19;19914;-83
2023/06/20 00:50:30;;;;;;;;;;;24.00;44.50;;;23.44;43.78;100952.50;12256883;19;19915;-83
2023/06/20 00:54:31;;;;;;;;;;;24.00;44.50;;;23.39;44.26;100956.53;12251406;19;19927;-83
2023/06/20 00:58:33;;;;;;;;;;;24.00;44.50;;;23.35;44.08;100955.16;12255977;19;19914;-84
2023/06/20 01:02:34;;;;;;;;;;;24.00;44.60;;;23.37;44.25;100966.50;12253958;19;19994;-83
2023/06/20 01:06:59;;;;;;;;;;;23.90;44.50;;;23.27;44.21;100941.81;12255835;19;19923;-83
2023/06/20 01:11:17;;;;;;;;;;;23.90;44.60;;;23.25;44.06;100935.84;12252410;19;19986;-83
2023/06/20 01:15:54;;;;;;;;;;;23.90;44.50;;;23.15;43.93;100917.31;12254486;19;20234;-83
2023/06/20 01:20:18;;;;;;;;;;;23.80;44.60;;;23.13;44.42;100923.78;12249633;19;19923;-82
2023/06/20 01:24:23;;;;;;;;;;;23.70;44.40;;;22.96;44.26;100910.41;12251428;19;19922;-83
2023/06/20 01:28:33;;;;;;;;;;;23.70;44.40;;;22.99;44.48;100913.78;12255025;19;20274;-83
2023/06/20 01:32:38;;;;;;;;;;;23.60;44.40;;;22.80;44.17;100906.84;12252940;19;20317;-84
2023/06/20 01:36:46;;;;;;;;;;;23.50;44.80;;;22.83;44.10;100912.66;12253855;19;19911;-82
2023/06/20 01:40:50;;;;;;;;;;;23.50;44.60;;;22.86;44.27;100912.34;12251450;19;19926;-83
2023/06/20 01:44:52;;;;;;;;;;;23.40;44.60;;;22.81;44.39;100904.00;12248911;19;19921;-83
2023/06/20 01:48:55;;;;;;;;;;;23.40;44.70;;;22.77;44.56;100902.66;12248652;19;20313;-84
2023/06/20 01:52:57;;;;;;;;;;;23.40;44.70;;;22.73;44.75;100902.13;12249934;19;19922;-84
2023/06/20 01:57:00;;;;;;;;;;;23.40;44.80;;;22.59;44.54;100883.28;12253830;19;19907;-83
2023/06/20 02:01:03;;;;;;;;;;;23.40;45.00;;;22.73;44.37;100907.44;12250977;19;20329;-83
2023/06/20 02:05:05;;;;;;;;;;;23.40;45.00;;;22.67;44.72;100907.28;12254022;19;19915;-82
2023/06/20 02:09:07;;;;;;;;;;;23.40;45.00;;;22.63;44.80;100895.25;12251781;19;19991;-83
2023/06/20 02:13:09;;;;;;;;;;;23.30;45.30;;;22.64;44.74;100919.06;12248628;19;19915;-83
2023/06/20 02:17:12;;;;;;;;;;;23.30;45.10;;;22.44;44.94;100878.56;12251371;19;19919;-83
2023/06/20 02:21:19;;;;;;;;;;;23.30;45.60;;;22.62;44.80;100917.56;12247930;19;19918;-82
2023/06/20 02:25:24;;;;;;;;;;;23.20;45.20;;;22.59;44.76;100915.22;12250033;19;19919;-83
2023/06/20 02:29:27;;;;;;;;;;;23.20;45.30;;;22.60;44.87;100911.56;12249737;19;20328;-83
2023/06/20 02:33:32;;;;;;;;;;;23.20;45.20;;;22.62;44.80;100925.53;12248591;19;19923;-83
2023/06/20 02:37:36;;;;;;;;;;;23.20;45.40;;;22.58;44.69;100908.25;12250991;19;19915;-83
2023/06/20 02:41:41;;;;;;;;;;;23.20;45.30;;;22.37;44.76;100885.50;12248849;19;19923;-83
2023/06/20 02:45:50;;;;;;;;;;;23.20;45.20;;;22.41;44.93;100894.81;12248210;19;20297;-82
2023/06/20 02:50:08;;;;;;;;;;;23.10;45.20;;;22.33;44.94;100893.94;12250177;19;20238;-82
2023/06/20 02:54:20;;;;;;;;;;;23.10;45.10;;;22.30;44.73;100908.38;12247045;19;19930;-83
2023/06/20 02:58:25;;;;;;;;;;;23.00;45.20;;;22.22;44.80;100908.34;12249410;19;19927;-82
2023/06/20 03:02:29;;;;;;;;;;;23.00;45.20;;;22.28;45.04;100923.69;12247199;19;19919;-83
2023/06/20 03:06:31;;;;;;;;;;;22.90;45.30;;;22.16;45.40;100896.47;12248649;19;19931;-84
2023/06/20 03:10:34;;;;;;;;;;;22.90;45.40;;;22.24;44.97;100906.34;12248459;19;20280;-82
2023/06/20 03:14:36;;;;;;;;;;;22.90;45.40;;;22.28;45.08;100921.03;12245623;19;19974;-82
2023/06/20 03:18:38;;;;;;;;;;;22.90;45.50;;;22.12;45.36;100891.63;12249628;19;19919;-82
2023/06/20 03:22:40;;;;;;;;;;;22.90;45.40;;;22.19;45.14;100916.63;12245210;19;19918;-83
2023/06/20 03:26:43;;;;;;;;;;;22.80;45.50;;;22.22;45.26;100929.63;12247066;19;19946;-83
2023/06/20 03:30:45;;;;;;;;;;;22.90;45.60;;;22.18;45.16;100925.59;12246842;19;19982;-83
2023/06/20 03:34:47;;;;;;;;;;;22.80;45.60;;;22.24;45.60;100944.44;12247662;19;19922;-83
2023/06/20 03:38:49;;;;;;;;;;;22.90;45.80;;;22.20;45.44;100947.59;12248454;19;19947;-83
2023/06/20 03:42:54;;;;;;;;;;;22.90;45.80;;;22.21;45.35;100954.56;12244168;19;19915;-84
2023/06/20 03:46:56;;;;;;;;;;;22.90;45.80;;;22.07;45.52;100926.66;12245534;19;19939;-83
2023/06/20 03:50:58;;;;;;;;;;;22.90;45.80;;;22.11;45.41;100946.63;12242721;19;19923;-83
2023/06/20 03:55:00;;;;;;;;;;;22.90;45.90;;;22.18;45.39;100954.84;12246043;19;19940;-83
2023/06/20 03:59:02;;;;;;;;;;;22.80;45.90;;;22.10;45.47;100940.47;12245186;19;19922;-84
2023/06/20 04:03:04;;;;;;;;;;;22.80;45.90;;;22.11;45.32;100951.94;12243080;19;19915;-83
2023/06/20 04:07:08;;;;;;;;;;;22.80;45.90;;;21.85;45.59;100910.19;12243990;19;19923;-83
2023/06/20 04:11:11;;;;;;;;;;;22.80;46.00;;;22.13;45.84;100951.81;12243442;19;20003;-84
2023/06/20 04:15:13;;;;;;;;;;;22.80;46.00;;;22.08;45.79;100953.09;12243581;19;19919;-83
2023/06/20 04:19:16;;;;;;;;;;;22.80;46.10;;;22.19;45.97;100953.88;12244745;19;19919;-83
2023/06/20 04:23:20;;;;;;;;;;;22.80;46.20;;;22.08;46.07;100933.66;12241929;19;19943;-83
2023/06/20 04:27:21;;;;;;;;;;;22.80;46.30;;;22.23;46.14;100957.91;12244680;19;19923;-84
2023/06/20 04:31:29;;;;;;;;;;;22.90;46.40;;;22.27;45.69;100959.25;12237805;19;19914;-82
2023/06/20 04:35:31;;;;;;;;;;;22.90;46.50;;;22.33;46.16;100947.97;12244884;19;20253;-83
2023/06/20 04:39:34;;;;;;;;;;;23.00;46.50;;;22.28;46.35;100937.81;12245975;19;19928;-83
2023/06/20 04:43:36;;;;;;;;;;;23.10;46.70;;;22.41;45.96;100950.69;12242659;19;19918;-82
2023/06/20 04:47:38;;;;;;;;;;;23.20;46.70;;;22.40;46.08;100937.56;12255434;19;20240;-82
2023/06/20 04:51:40;;;;;;;;;;;23.20;46.70;;;22.51;46.37;100954.09;12251830;19;19922;-82
2023/06/20 04:55:42;;;;;;;;;;;23.30;46.70;;;22.57;46.05;100962.44;12255265;19;19911;-82
2023/06/20 04:59:46;;;;;;;;;;;23.40;46.80;;;22.56;46.22;100944.81;12253903;19;19915;-82
2023/06/20 05:03:48;;;;;;;;;;;23.40;46.70;;;22.47;46.22;100936.78;12249538;19;19914;-82
2023/06/20 05:07:50;;;;;;;;;;;23.50;46.70;;;22.73;46.25;100978.50;12255478;19;19940;-82
2023/06/20 05:11:51;;;;;;;;;;;23.50;46.60;;;22.79;46.20;100991.22;12250984;19;19922;-82
2023/06/20 05:15:53;;;;;;;;;;;23.60;46.70;;;22.85;46.21;100979.09;12256285;19;19981;-83
2023/06/20 05:19:55;;;;;;;;;;;23.70;46.90;;;22.67;46.41;100941.88;12254098;19;19922;-83
2023/06/20 05:23:57;;;;;;;;;;;23.70;47.00;;;22.86;46.41;100970.94;12250599;19;19930;-83
2023/06/20 05:27:58;;;;;;;;;;;23.70;47.20;;;22.94;46.64;100978.13;12253143;19;19914;-84
2023/06/20 05:32:00;;;;;;;;;;;23.80;47.00;;;23.04;46.36;100992.19;12253082;19;20353;-83
2023/06/20 05:36:02;;;;;;;;;;;23.90;47.00;;;23.01;46.71;100981.00;12253180;19;20317;-85
2023/06/20 05:40:07;;;;;;;;;;;23.90;47.00;;;22.87;46.68;100953.97;12254989;19;19919;-83
2023/06/20 05:44:08;;;;;;;;;;;24.00;47.00;;;23.14;46.50;100990.25;12248659;19;19923;-84
2023/06/20 05:48:10;;;;;;;;;;;24.00;47.00;;;23.26;46.45;101009.44;12253982;19;19915;-83
2023/06/20 05:52:11;;;;;;;;;;;24.10;46.70;;;23.30;46.57;101010.78;12250049;19;19925;-84
2023/06/20 05:56:13;;;;;;;;;;;24.10;47.50;;;23.13;46.78;100979.75;12252513;19;19915;-84
2023/06/20 06:00:16;;;;;;;;;;;24.10;46.70;;;23.36;46.50;101007.50;12252454;19;19919;-83
2023/06/20 06:04:21;;;;;;;;;;;24.20;47.00;;;23.44;46.64;101008.50;12247317;19;19918;-83
2023/06/20 06:08:22;;;;;;;;;;;24.30;47.10;;;23.52;46.78;101003.19;12253019;19;19952;-83
2023/06/20 06:12:24;;;;;;;;;;;24.30;48.60;;;23.63;46.98;101005.56;12249479;19;19919;-83
2023/06/20 06:16:25;;;;;;;;;;;24.40;47.90;;;23.59;46.55;100983.72;12253505;19;19918;-84
2023/06/20 06:20:28;;;;;;;;;;;24.50;47.80;;;23.82;46.63;100999.13;12252421;19;19911;-83
2023/06/20 06:24:30;;;;;;;;;;;24.70;47.70;;;23.91;46.91;100997.31;12248344;19;20278;-83
2023/06/20 06:28:32;;;;;;;;;;;24.80;47.50;;;23.95;46.67;100982.63;12252262;19;19975;-84
2023/06/20 06:32:34;;;;;;;;;;;24.90;47.50;;;24.13;46.79;100995.81;12245086;19;19925;-83
2023/06/20 06:36:36;;;;;;;;;;;25.10;47.30;;;24.33;46.84;100996.31;12246630;19;19922;-83
2023/06/20 06:40:38;;;;;;;;;;;25.20;47.30;;;24.40;46.85;100992.78;12246010;19;20003;-83
2023/06/20 06:44:40;;;;;;;;;;;25.30;47.20;;;24.62;47.01;101003.81;12242412;19;19911;-84
2023/06/20 06:48:43;;;;;;;;;;;25.50;47.40;;;24.73;46.83;101003.44;12248140;19;19907;-83
2023/06/20 06:52:45;;;;;;;;;;;25.70;47.60;;;24.67;46.87;100967.56;12246910;19;20000;-84
2023/06/20 06:56:46;;;;;;;;;;;25.80;47.30;;;24.92;46.88;100994.22;12248731;19;19979;-83
2023/06/20 07:00:48;;;;;;;;;;;25.90;47.30;;;25.08;47.11;101004.84;12250406;19;20337;-85
2023/06/20 07:04:50;;;;;;;;;;;26.00;47.20;;;25.17;47.06;101006.53;12245775;19;19915;-84
2023/06/20 07:08:52;;;;;;;;;;;26.20;47.40;;;25.19;47.04;100986.81;12249410;19;19910;-83
2023/06/20 07:12:53;;;;;;;;;;;26.30;47.20;;;25.35;47.06;100989.38;12247748;19;19927;-84
2023/06/20 07:16:55;;;;;;;;;;;26.30;47.10;;;25.46;47.26;100997.00;12248859;19;19940;-84
2023/06/20 07:20:57;;;;;;;;;;;26.50;47.40;;;25.52;47.29;100972.25;12248917;19;19938;-84
2023/06/20 07:24:59;;;;;;;;;;;26.50;47.10;;;25.66;46.82;100985.88;12246147;19;19919;-84
2023/06/20 07:29:00;;;;;;;;;;;26.70;47.20;;;25.77;47.09;100996.19;12248823;19;19929;-84
2023/06/20 07:33:02;;;;;;;;;;;26.70;47.30;;;25.86;46.78;100995.13;12249285;19;19935;-84
2023/06/20 07:37:04;;;;;;;;;;;26.80;47.60;;;25.92;46.87;100986.38;12250376;19;20019;-84
2023/06/20 07:41:06;;;;;;;;;;;26.90;47.50;;;25.99;46.82;100994.53;12250022;19;20272;-83
2023/06/20 07:45:08;;;;;;;;;;;27.00;47.30;;;26.05;46.93;100997.31;12246020;19;19922;-83
2023/06/20 07:49:10;;;;;;;;;;;27.00;47.10;;;26.09;46.85;100994.31;12250639;19;19952;-84
2023/06/20 07:53:11;;;;;;;;;;;27.10;47.40;;;26.16;47.02;101003.25;12245971;19;19935;-83
2023/06/20 07:57:13;;;;;;;;;;;27.10;47.30;;;26.20;46.96;101009.94;12247903;19;19987;-82
2023/06/20 08:01:15;;;;;;;;;;;27.20;47.40;;;26.19;46.72;100993.06;12249543;19;20311;-82
2023/06/20 08:05:16;;;;;;;;;;;27.20;47.10;;;26.31;47.01;101019.38;12245262;19;19915;-84
2023/06/20 08:09:18;;;;;;;;;;;27.20;47.10;;;26.39;47.17;101016.63;12249738;19;20337;-84
2023/06/20 08:13:19;;;;;;;;;;;27.30;47.20;;;26.43;46.96;101004.53;12245608;19;19915;-83
2023/06/20 08:17:21;;;;;;;;;;;27.40;47.20;;;26.52;46.72;101006.16;12251887;19;19943;-82
2023/06/20 08:21:22;;;;;;;;;;;27.50;47.40;;;26.70;46.87;101013.84;12260906;19;19990;-84
2023/06/20 08:25:24;;;;;;;;;;;27.60;47.70;;;26.88;46.83;101011.63;12261323;19;20381;-84
2023/06/20 08:29:25;;;;;;;;;;;27.80;47.80;;;27.10;47.03;101009.88;12262192;19;19937;-84
2023/06/20 08:33:27;;;;;;;;;;;28.00;47.90;;;27.30;47.05;101010.16;12259357;19;19932;-85
2023/06/20 08:37:28;;;;;;;;;;;28.20;48.00;;;27.51;46.92;101011.22;12258745;19;19936;-84
2023/06/20 08:41:30;;;;;;;;;;;28.40;48.10;;;27.68;47.07;101009.97;12261391;19;20060;-85
2023/06/20 08:45:35;;;;;;;;;;;28.60;47.60;;;27.74;46.82;100993.09;12259252;19;19915;-84
2023/06/20 08:49:37;;;;;;;;;;;28.80;47.50;;;27.79;47.06;100982.63;12258563;19;19947;-84
2023/06/20 08:53:39;;;;;;;;;;;28.90;47.30;;;28.02;47.18;101001.25;12255225;19;19946;-84
2023/06/20 08:57:40;;;;;;;;;;;29.00;47.20;;;27.92;46.70;100984.66;12258531;19;19926;-84
2023/06/20 09:01:42;;;;;;;;;;;29.10;47.20;;;28.11;46.78;101009.16;12257112;19;19914;-84
2023/06/20 09:05:45;;;;;;;;;;;29.10;47.10;;;28.18;46.78;101018.13;12258644;19;19925;-84
2023/06/20 09:09:47;;;;;;;;;;;29.20;47.20;;;28.20;46.85;101019.59;12259101;19;19919;-84
2023/06/20 09:13:49;;;;;;;;;;;29.20;47.20;;;28.30;46.77;101037.22;12252829;19;19935;-84
2023/06/20 09:18:00;;;;;;;;;;;29.30;47.20;;;28.24;46.72;101052.25;12258077;19;19918;-83
2023/06/20 09:22:05;;;;;;;;;;;29.30;47.00;;;28.30;46.61;101099.00;12255063;19;19919;-83
2023/06/20 09:26:15;;;;;;;;;;;29.30;47.00;;;28.28;46.64;101107.28;12258106;19;19919;-84
2023/06/20 09:30:17;;;;;;;;;;;29.30;46.90;;;28.28;46.54;101125.25;12254568;19;19986;-83
2023/06/20 09:34:19;;;;;;;;;;;29.30;46.70;;;28.17;46.16;101140.84;12255229;19;19921;-84
2023/06/20 09:38:21;;;;;;;;;;;29.20;46.70;;;28.03;46.57;101125.63;12258680;19;19919;-85
2023/06/20 09:42:23;;;;;;;;;;;29.10;46.60;;;27.92;46.38;101144.88;12255744;19;19911;-85
2023/06/20 09:46:24;;;;;;;;;;;29.00;46.80;;;27.86;46.53;101151.00;12254537;19;19923;-83
2023/06/20 09:50:27;;;;;;;;;;;28.80;47.00;;;27.76;46.26;101143.19;12254462;19;20262;-84
2023/06/20 09:54:55;;;;;;;;;;;28.70;47.20;;;27.60;46.53;101160.38;12249575;19;19926;-84
2023/06/20 09:59:00;;;;;;;;;;;28.50;47.20;;;27.36;46.40;101143.53;12254469;19;19922;-84
2023/06/20 10:03:09;;;;;;;;;;;28.30;47.10;;;27.11;46.49;101124.16;12249731;19;19915;-84
2023/06/20 10:07:14;;;;;;;;;;;28.10;47.20;;;27.14;46.72;101137.19;12254416;19;19987;-84
2023/06/20 10:11:15;;;;;;;;;;;27.90;47.40;;;26.95;46.25;101110.91;12253833;19;19982;-84
2023/06/20 10:15:18;;;;;;;;;;;27.80;47.70;;;26.97;46.60;101124.13;12250962;19;19978;-83
2023/06/20 10:19:19;;;;;;;;;;;27.70;47.70;;;26.92;46.58;101122.84;12251698;19;20001;-84
2023/06/20 10:23:28;;;;;;;;;;;27.50;47.60;;;26.64;46.52;101082.38;12247537;19;19923;-84
2023/06/20 10:27:30;;;;;;;;;;;27.50;47.90;;;26.75;46.80;101117.81;12252278;19;19911;-83
2023/06/20 10:32:05;;;;;;;;;;;27.40;47.90;;;26.72;46.56;101119.00;12247722;19;19974;-84
2023/06/20 10:36:08;;;;;;;;;;;27.30;48.00;;;26.65;46.60;101132.28;12249998;19;20367;-84
2023/06/20 10:40:28;;;;;;;;;;;27.20;48.00;;;26.38;46.87;101101.50;12248718;19;19915;-84
2023/06/20 10:44:30;;;;;;;;;;;27.10;48.10;;;26.49;46.67;101135.91;12245899;19;19963;-84
2023/06/20 10:48:31;;;;;;;;;;;27.00;48.10;;;26.39;46.89;101118.41;12248596;19;19922;-84
2023/06/20 10:52:35;;;;;;;;;;;27.00;48.30;;;26.32;46.77;101120.94;12247659;19;19930;-83
2023/06/20 10:56:37;;;;;;;;;;;27.00;48.30;;;26.32;46.51;101118.28;12247888;19;19950;-83
2023/06/20 11:00:38;;;;;;;;;;;26.90;48.80;;;26.25;46.77;101114.66;12246701;19;19915;-84
2023/06/20 11:04:40;;;;;;;;;;;26.80;48.70;;;26.09;46.87;101096.03;12244891;19;19911;-84
2023/06/20 11:08:45;;;;;;;;;;;26.70;48.50;;;26.15;46.85;101106.84;12247112;19;19919;-83
2023/06/20 11:12:47;;;;;;;;;;;26.70;48.70;;;26.03;47.23;101086.84;12247577;19;19914;-84
2023/06/20 11:16:50;;;;;;;;;;;26.60;49.60;;;25.99;46.82;101086.38;12248085;19;19919;-84
2023/06/20 11:20:52;;;;;;;;;;;26.60;49.90;;;25.84;47.19;101064.03;12246345;19;20320;-84
2023/06/20 11:24:54;;;;;;;;;;;26.50;49.40;;;25.87;47.27;101090.47;12243993;19;19918;-84
2023/06/20 11:28:59;;;;;;;;;;;26.40;49.30;;;25.87;47.15;101089.63;12248612;19;20320;-84
2023/06/20 11:33:09;;;;;;;;;;;26.30;49.40;;;25.81;47.27;101077.75;12244075;19;19926;-84
2023/06/20 11:37:13;;;;;;;;;;;26.30;49.70;;;25.76;47.27;101074.75;12246808;19;19919;-84
2023/06/20 11:41:14;;;;;;;;;;;26.30;50.00;;;25.61;47.42;101062.13;12244219;19;19923;-84
2023/06/20 11:45:16;;;;;;;;;;;26.20;50.10;;;25.72;47.26;101078.81;12245046;19;19943;-84
2023/06/20 11:49:31;;;;;;;;;;;26.20;49.60;;;25.43;47.17;101034.81;12247426;19;19919;-85
2023/06/20 11:53:35;;;;;;;;;;;26.20;49.80;;;25.53;47.50;101054.16;12252573;19;19915;-85
2023/06/20 11:57:37;;;;;;;;;;;26.10;49.80;;;25.52;47.34;101055.16;12258160;19;19923;-84
2023/06/20 12:01:45;;;;;;;;;;;26.10;51.40;;;25.54;47.37;101065.69;12256780;19;19979;-84
2023/06/20 12:05:46;;;;;;;;;;;26.00;50.50;;;25.49;47.71;101062.69;12256868;19;19923;-84
2023/06/20 12:09:48;;;;;;;;;;;26.00;50.40;;;25.41;47.79;101044.88;12260272;19;19925;-84
2023/06/20 12:13:49;;;;;;;;;;;26.00;51.20;;;25.46;47.63;101053.16;12254182;19;20335;-84
2023/06/20 12:17:51;;;;;;;;;;;26.00;51.60;;;25.41;47.65;101049.34;12259189;19;19918;-84
2023/06/20 12:21:53;;;;;;;;;;;25.90;50.80;;;25.24;48.07;101021.88;12252820;19;19922;-84
2023/06/20 12:25:55;;;;;;;;;;;25.90;51.20;;;25.15;48.16;101013.88;12255977;19;19925;-85
2023/06/20 12:29:57;;;;;;;;;;;25.90;50.80;;;25.33;48.00;101029.69;12255502;19;19933;-84
2023/06/20 12:33:58;;;;;;;;;;;25.90;51.10;;;25.41;47.86;101052.03;12251846;19;19927;-84
2023/06/20 12:38:00;;;;;;;;;;;25.90;51.00;;;25.28;48.11;101029.38;12257574;19;19934;-84
2023/06/20 12:42:02;;;;;;;;;;;26.00;50.90;;;25.42;48.34;101029.66;12253585;19;19921;-84
2023/06/20 12:46:04;;;;;;;;;;;26.00;52.30;;;25.39;48.45;101004.91;12258155;19;19949;-84
2023/06/20 12:50:06;;;;;;;;;;;26.00;53.30;;;25.38;48.30;100997.06;12255053;19;19918;-85
2023/06/20 12:54:10;;;;;;;;;;;26.00;51.40;;;25.36;48.34;100993.75;12253845;19;19911;-84
2023/06/20 12:58:14;;;;;;;;;;;25.90;51.70;;;25.27;48.49;100986.75;12257689;19;19915;-84
2023/06/20 13:02:16;;;;;;;;;;;25.90;51.30;;;25.38;48.69;101003.25;12254016;19;19919;-83
2023/06/20 13:06:18;;;;;;;;;;;25.90;51.40;;;25.39;48.42;100993.41;12254661;19;19936;-84
2023/06/20 13:10:20;;;;;;;;;;;26.00;51.50;;;25.38;48.29;100991.72;12256737;19;19923;-85
2023/06/20 13:14:22;;;;;;;;;;;26.00;51.60;;;25.48;48.45;101002.19;12252152;19;19911;-84
2023/06/20 13:18:24;;;;;;;;;;;26.00;52.40;;;25.45;48.82;100987.34;12255944;19;20293;-83
2023/06/20 13:22:27;;;;;;;;;;;26.10;51.80;;;25.50;48.53;100995.66;12252117;19;19918;-84
2023/06/20 13:26:29;;;;;;;;;;;26.10;52.60;;;25.55;48.59;100998.66;12256420;19;19929;-84
2023/06/20 13:30:30;;;;;;;;;;;26.10;53.80;;;25.35;48.62;100976.03;12255459;19;19903;-83
2023/06/20 13:34:32;;;;;;;;;;;26.10;52.40;;;25.54;49.06;101002.31;12249849;19;20281;-84
2023/06/20 13:38:34;;;;;;;;;;;26.20;52.20;;;25.63;48.94;101004.94;12259468;19;19927;-84
2023/06/20 13:42:41;;;;;;;;;;;26.30;53.20;;;25.61;49.04;100997.94;12255847;19;19911;-84
2023/06/20 13:46:43;;;;;;;;;;;26.20;54.00;;;25.62;48.93;100988.06;12255915;19;20337;-83
2023/06/20 13:50:44;;;;;;;;;;;26.20;52.30;;;25.70;49.48;100995.22;12253535;19;20001;-84
2023/06/20 13:54:46;;;;;;;;;;;26.30;52.50;;;25.78;49.49;100987.13;12254247;19;19918;-84
2023/06/20 13:58:48;;;;;;;;;;;26.40;52.70;;;25.92;49.27;100997.09;12255549;19;19918;-84
2023/06/20 14:02:49;;;;;;;;;;;26.50;53.80;;;26.04;49.62;101003.69;12249729;19;19922;-84
2023/06/20 14:06:51;;;;;;;;;;;26.60;52.70;;;26.18;49.65;101001.25;12253555;19;19919;-84
2023/06/20 14:10:53;;;;;;;;;;;26.70;53.00;;;26.19;49.31;100974.31;12254300;19;20313;-85
2023/06/20 14:14:54;;;;;;;;;;;27.00;53.10;;;26.45;49.33;100995.31;12250940;19;19919;-84
2023/06/20 14:18:56;;;;;;;;;;;27.10;52.70;;;26.56;49.61;100990.56;12250553;19;20337;-84
2023/06/20 14:22:58;;;;;;;;;;;27.20;52.40;;;26.67;49.62;100995.44;12249745;19;19923;-83
2023/06/20 14:26:59;;;;;;;;;;;27.30;52.20;;;26.69;49.77;100985.38;12254360;19;20325;-83
2023/06/20 14:31:01;;;;;;;;;;;27.40;51.70;;;26.79;49.55;100990.47;12250427;19;19939;-84
2023/06/20 14:35:03;;;;;;;;;;;27.60;51.70;;;26.76;49.61;100964.88;12246698;19;19930;-84
2023/06/20 14:39:05;;;;;;;;;;;27.60;51.60;;;26.88;49.85;100966.06;12251585;19;19933;-91
2023/06/20 14:43:06;;;;;;;;;;;27.70;51.50;;;26.78;49.43;100927.16;12247680;19;19925;-91
2023/06/20 14:47:08;;;;;;;;;;;27.70;51.50;;;27.03;49.47;100954.50;12253112;19;19922;-92
2023/06/20 14:51:10;;;;;;;;;;;27.80;51.40;;;27.12;49.74;100964.94;12251375;19;19930;-91
2023/06/20 14:55:11;;;;;;;;;;;27.90;51.30;;;27.11;49.67;100938.28;12250213;19;19914;-91
2023/06/20 14:59:13;;;;;;;;;;;28.00;51.70;;;27.29;49.95;100962.88;12252075;19;19919;-91
2023/06/20 15:03:15;;;;;;;;;;;28.00;51.40;;;27.17;49.59;100926.88;12249658;19;20246;-91
2023/06/20 15:07:17;;;;;;;;;;;28.10;51.20;;;27.42;49.70;100958.72;12250420;19;19918;-91
2023/06/20 15:11:19;;;;;;;;;;;28.20;51.20;;;27.53;49.80;100956.34;12240164;19;19923;-91
2023/06/20 15:15:20;;;;;;;;;;;28.30;51.70;;;27.58;49.63;100950.41;12249810;19;19919;-91
2023/06/20 15:19:21;;;;;;;;;;;28.40;51.60;;;27.68;49.82;100961.69;12248186;19;19929;-91
2023/06/20 15:23:23;;;;;;;;;;;28.40;51.40;;;27.71;49.92;100942.50;12247074;19;19918;-91
2023/06/20 15:27:24;;;;;;;;;;;28.50;51.50;;;27.78;49.45;100942.53;12247030;19;19944;-90
2023/06/20 15:31:26;;;;;;;;;;;28.60;51.30;;;27.80;49.81;100925.25;12247922;19;19970;-90
2023/06/20 15:35:27;;;;;;;;;;;28.70;51.50;;;27.98;49.23;100937.41;12243717;19;19918;-90
2023/06/20 15:39:28;;;;;;;;;;;28.70;51.30;;;27.96;49.63;100931.38;12249555;19;20403;-91
2023/06/20 15:43:30;;;;;;;;;;;28.80;51.30;;;27.94;49.39;100909.28;12245835;19;19946;-92
2023/06/20 15:47:32;;;;;;;;;;;28.90;51.30;;;27.95;49.61;100900.19;12244858;19;19919;-92
2023/06/20 15:51:34;;;;;;;;;;;28.90;51.10;;;28.24;49.59;100926.84;12246109;19;19915;-92
2023/06/20 15:55:35;;;;;;;;;;;29.00;51.10;;;28.29;49.20;100928.13;12248610;19;19923;-91
2023/06/20 15:59:37;;;;;;;;;;;29.10;51.00;;;28.26;49.44;100923.16;12248265;19;19935;-91
2023/06/20 16:03:39;;;;;;;;;;;29.10;51.00;;;28.26;49.02;100917.78;12244142;19;20325;-91
2023/06/20 16:07:40;;;;;;;;;;;29.10;50.80;;;28.29;49.15;100914.69;12245063;19;19927;-91
2023/06/20 16:11:43;;;;;;;;;;;29.00;50.70;;;28.28;49.25;100913.03;12242747;19;19923;-92
2023/06/20 16:15:45;;;;;;;;;;;29.10;50.80;;;28.36;49.43;100900.28;12242655;19;19911;-91
2023/06/20 16:19:46;;;;;;;;;;;29.10;50.60;;;28.30;49.53;100892.16;12246755;19;19911;-92
2023/06/20 16:23:48;;;;;;;;;;;29.20;50.90;;;28.41;49.43;100903.22;12242654;19;20255;-90
2023/06/20 16:27:51;;;;;;;;;;;29.20;50.90;;;28.40;49.52;100898.84;12245882;19;19922;-90
2023/06/20 16:31:53;;;;;;;;;;;29.20;50.80;;;28.39;49.58;100885.63;12239865;19;20344;-91
2023/06/20 16:35:57;;;;;;;;;;;29.20;50.90;;;28.50;49.36;100898.53;12242591;19;19938;-92
2023/06/20 16:39:58;;;;;;;;;;;29.30;50.90;;;28.49;49.44;100887.97;12246464;19;19939;-91
2023/06/20 16:44:00;;;;;;;;;;;29.30;50.80;;;28.52;49.41;100885.72;12242862;19;19950;-92
2023/06/20 16:48:01;;;;;;;;;;;29.30;50.70;;;28.36;49.22;100853.78;12256034;19;19914;-91
2023/06/20 16:52:03;;;;;;;;;;;29.30;50.80;;;28.58;49.21;100884.09;12252642;19;19925;-92
2023/06/20 16:56:04;;;;;;;;;;;29.30;50.80;;;28.51;49.30;100861.72;12254358;19;19918;-91
2023/06/20 17:00:06;;;;;;;;;;;29.30;50.80;;;28.61;49.18;100871.09;12251218;19;20091;-91
2023/06/20 17:04:08;;;;;;;;;;;29.40;50.90;;;28.64;49.24;100872.53;12248804;19;19919;-91
2023/06/20 17:08:10;;;;;;;;;;;29.40;50.80;;;28.70;49.31;100870.91;12253669;19;19914;-92
2023/06/20 17:12:11;;;;;;;;;;;29.50;50.80;;;28.68;49.32;100866.56;12253916;19;19962;-92
2023/06/20 17:16:13;;;;;;;;;;;29.50;50.80;;;28.58;49.12;100841.94;12254606;19;19910;-92
2023/06/20 17:20:14;;;;;;;;;;;29.50;50.90;;;28.79;49.05;100869.72;12251912;19;19921;-92
2023/06/20 17:24:16;;;;;;;;;;;29.50;50.70;;;28.77;49.13;100861.03;12248826;19;19919;-91
2023/06/20 17:28:19;;;;;;;;;;;29.60;50.90;;;28.88;49.06;100871.19;12255421;19;19922;-91
2023/06/20 17:32:20;;;;;;;;;;;29.60;50.80;;;28.90;49.25;100866.44;12250595;19;20014;-92
2023/06/20 17:36:22;;;;;;;;;;;29.60;50.80;;;28.83;49.26;100854.84;12249035;19;19925;-91
2023/06/20 17:40:23;;;;;;;;;;;29.60;51.00;;;28.95;49.46;100866.69;12255445;19;19918;-91
2023/06/20 17:44:25;;;;;;;;;;;29.60;50.90;;;28.97;49.08;100867.28;12250660;19;19923;-91
2023/06/20 17:48:26;;;;;;;;;;;29.60;50.80;;;28.98;49.16;100865.44;12253105;19;19943;-91
2023/06/20 17:52:28;;;;;;;;;;;29.70;50.80;;;28.99;49.16;100864.41;12252048;19;19932;-90
2023/06/20 17:56:29;;;;;;;;;;;29.70;50.70;;;28.77;48.81;100831.47;12249604;19;19919;-91
2023/06/20 18:00:31;;;;;;;;;;;29.70;50.70;;;28.92;49.12;100850.91;12255010;19;19918;-91
2023/06/20 18:04:32;;;;;;;;;;;29.70;50.80;;;28.87;48.62;100840.78;12249268;19;20213;-91
2023/06/20 18:08:33;;;;;;;;;;;29.70;50.80;;;28.90;49.00;100829.63;12251477;19;19925;-91
2023/06/20 18:12:35;;;;;;;;;;;29.70;50.90;;;28.96;48.84;100838.75;12249366;19;19943;-91